Marietta, Oklahoma
Current Conditions -  °F | °C
As of 8:15 PM on Saturday 22 Nov 2014 (Local Time) from K1F0 Reporting Station
Overcast Overcast  
Wind Chill: 55°   Ceiling: 400
Heat Index: 55°   Visibility: 7mi
Dew Point: 55°   Wind: 8mph
Humidity: 100%   Direction: 150°SSE
Pressure: 29.75"   Gusts: NA
Location:  33.94°N, 97.12°W
Report Text: K1F0 230215Z AUTO 15007KT 7SM OVC004 13/13 A2975 RMK AO2
Loading
Personal Weather Stations






























Interactive Weather Map New forecast layout! Learn more

10-Day Weather Forecast

Advertisements
Track Severe Weather on mobile